createdAt,value
2023-03-04T00:00:31.115Z,1.36
2023-03-04T00:02:58.658Z,1.36
2023-03-04T00:05:26.139Z,1.35
2023-03-04T00:07:53.609Z,0.85
2023-03-04T00:10:21.087Z,1.35
2023-03-04T00:12:49.890Z,1.31
2023-03-04T00:15:17.386Z,1.39
2023-03-04T00:17:46.087Z,1.37
2023-03-04T00:20:14.206Z,1.28
2023-03-04T00:22:41.676Z,1.33
2023-03-04T00:25:09.323Z,1.35
2023-03-04T00:27:36.804Z,1.26
2023-03-04T00:30:06.825Z,1.29
2023-03-04T00:32:34.545Z,1.19
2023-03-04T00:35:02.127Z,1.17
2023-03-04T00:37:29.591Z,1.20
2023-03-04T00:39:57.069Z,1.17
2023-03-04T00:42:24.568Z,1.21
2023-03-04T00:44:52.338Z,1.18
2023-03-04T00:47:21.125Z,1.07
2023-03-04T00:49:48.575Z,1.13
2023-03-04T00:52:23.226Z,1.03
2023-03-04T00:54:50.893Z,1.05
2023-03-04T00:57:18.584Z,0.93
2023-03-04T00:59:46.241Z,0.51
2023-03-04T01:02:13.974Z,0.93
2023-03-04T01:04:42.944Z,0.90
2023-03-04T01:07:10.768Z,0.91
2023-03-04T01:09:38.305Z,0.85
2023-03-04T01:12:06.022Z,0.92
2023-03-04T01:14:33.483Z,0.81
2023-03-04T01:17:01.094Z,0.85
2023-03-04T01:19:28.622Z,0.78
2023-03-04T01:21:57.537Z,0.83
2023-03-04T01:24:25.050Z,0.91
2023-03-04T01:26:52.567Z,0.85
2023-03-04T01:29:19.990Z,0.80
2023-03-04T01:31:47.604Z,0.91
2023-03-04T01:34:15.123Z,0.79
2023-03-04T01:36:42.645Z,0.82
2023-03-04T01:39:11.427Z,0.77
2023-03-04T01:41:39.251Z,0.76
2023-03-04T01:44:06.906Z,0.76
2023-03-04T01:46:34.644Z,0.74
2023-03-04T01:49:02.505Z,0.68
2023-03-04T01:51:30.000Z,0.70
2023-03-04T01:53:57.471Z,0.77
2023-03-04T01:56:29.900Z,0.72
2023-03-04T01:59:12.039Z,0.71
2023-03-04T02:01:41.015Z,0.57
2023-03-04T02:04:08.905Z,0.63
2023-03-04T02:06:37.848Z,0.61
2023-03-04T02:09:05.779Z,0.55
2023-03-04T02:11:36.572Z,0.57
2023-03-04T02:14:04.465Z,0.54
2023-03-04T02:16:32.738Z,0.50
2023-03-04T02:19:00.753Z,0.53
2023-03-04T02:21:30.394Z,0.51
2023-03-04T02:24:07.637Z,0.41
2023-03-04T02:26:37.114Z,0.51
2023-03-04T02:29:05.719Z,0.47
2023-03-04T02:31:35.535Z,0.42
2023-03-04T02:34:05.731Z,0.43
2023-03-04T02:36:34.128Z,0.33
2023-03-04T02:39:05.509Z,0.31
2023-03-04T02:41:33.763Z,0.32
2023-03-04T02:44:02.607Z,0.16
2023-03-04T02:46:30.200Z,-0.15
2023-03-04T02:48:57.658Z,-0.07
2023-03-04T02:51:25.120Z,0.20
2023-03-04T02:53:52.638Z,0.20
2023-03-04T02:56:20.102Z,0.23
2023-03-04T02:58:47.556Z,-0.40
2023-03-04T03:01:16.365Z,-0.64
2023-03-04T03:03:43.925Z,0.10
2023-03-04T03:06:11.478Z,0.17
2023-03-04T03:08:38.998Z,0.25
2023-03-04T03:11:07.759Z,0.09
2023-03-04T03:13:36.340Z,0.13
2023-03-04T03:16:03.910Z,0.13
2023-03-04T03:18:32.759Z,0.22
2023-03-04T03:21:00.245Z,0.11
2023-03-04T03:23:27.701Z,0.09
2023-03-04T03:25:55.162Z,0.04
2023-03-04T03:28:22.596Z,-0.24
2023-03-04T03:30:50.098Z,-0.02
2023-03-04T03:33:17.629Z,-0.43
2023-03-04T03:35:46.468Z,-0.34
2023-03-04T03:38:13.956Z,-0.21
2023-03-04T03:40:41.461Z,-0.37
2023-03-04T03:43:08.977Z,-0.14
2023-03-04T03:45:36.799Z,-0.15
2023-03-04T03:48:04.743Z,-0.09
2023-03-04T03:50:33.239Z,0.01
2023-03-04T03:53:02.139Z,-0.10
2023-03-04T03:55:29.630Z,-0.07
2023-03-04T03:57:57.126Z,-0.03
2023-03-04T04:00:24.849Z,0.07
2023-03-04T04:02:53.052Z,0.02
2023-03-04T04:05:20.966Z,0.06
2023-03-04T04:07:48.432Z,-0.31
2023-03-04T04:10:17.598Z,-1.30
2023-03-04T04:12:44.910Z,-0.56
2023-03-04T04:15:13.273Z,-1.41
2023-03-04T04:17:41.017Z,-1.07
2023-03-04T04:20:09.909Z,-1.13
2023-03-04T04:22:37.529Z,-1.33
2023-03-04T04:25:05.877Z,-2.35
2023-03-04T04:27:34.741Z,-1.95
2023-03-04T04:30:02.248Z,-2.42
2023-03-04T04:32:29.801Z,-1.90
2023-03-04T04:34:57.259Z,-2.23
2023-03-04T04:37:24.801Z,-2.21
2023-03-04T04:39:55.231Z,-2.79
2023-03-04T04:42:22.799Z,-2.42
2023-03-04T04:44:52.505Z,-2.53
2023-03-04T04:47:20.026Z,-2.67
2023-03-04T04:49:47.487Z,-2.48
2023-03-04T04:52:15.056Z,-2.38
2023-03-04T04:54:42.496Z,-2.80
2023-03-04T04:57:10.269Z,-2.48
2023-03-04T04:59:37.698Z,-2.76
2023-03-04T05:02:08.989Z,-2.78
2023-03-04T05:04:36.648Z,-1.77
2023-03-04T05:07:04.319Z,-1.07
2023-03-04T05:09:31.836Z,-1.83
2023-03-04T05:11:59.515Z,-1.97
2023-03-04T05:14:27.030Z,-2.30
2023-03-04T05:16:54.552Z,-2.61
2023-03-04T05:19:23.407Z,-1.97
2023-03-04T05:21:50.943Z,-2.40
2023-03-04T05:24:18.526Z,-2.33
2023-03-04T05:26:46.027Z,-2.38
2023-03-04T05:29:13.488Z,-2.63
2023-03-04T05:31:40.991Z,-2.52
2023-03-04T05:34:08.466Z,-2.29
2023-03-04T05:36:37.386Z,-2.80
2023-03-04T05:39:04.924Z,-2.44
2023-03-04T05:41:32.461Z,-2.23
2023-03-04T05:43:59.895Z,-2.31
2023-03-04T05:46:27.464Z,-2.09
2023-03-04T05:48:55.593Z,-2.50
2023-03-04T05:51:24.041Z,-1.54
2023-03-04T05:53:52.998Z,-1.42
2023-03-04T05:56:21.656Z,-2.05
2023-03-04T05:58:49.129Z,-1.80
2023-03-04T06:01:17.034Z,-1.09
2023-03-04T06:03:44.614Z,-1.79
2023-03-04T06:06:12.265Z,-1.22
2023-03-04T06:08:39.741Z,-1.23
2023-03-04T06:11:08.906Z,-1.82
2023-03-04T06:13:38.103Z,-1.91
2023-03-04T06:16:05.904Z,-1.94
2023-03-04T06:18:33.242Z,-2.17
2023-03-04T06:21:02.138Z,-1.97
2023-03-04T06:23:30.619Z,-2.16
2023-03-04T06:26:01.299Z,-1.69
2023-03-04T06:28:30.630Z,-2.03
2023-03-04T06:30:58.989Z,-2.16
2023-03-04T06:33:26.654Z,-1.86
2023-03-04T06:35:56.639Z,-1.40
2023-03-04T06:38:24.652Z,-1.77
2023-03-04T06:40:52.238Z,-1.68
2023-03-04T06:43:19.881Z,-1.09
2023-03-04T06:45:51.910Z,-0.63
2023-03-04T06:48:19.361Z,-0.65
2023-03-04T06:50:46.793Z,-0.61
2023-03-04T06:53:14.243Z,-0.55
2023-03-04T06:55:41.810Z,-1.10
2023-03-04T06:58:09.276Z,-0.88
2023-03-04T07:00:36.884Z,-0.24
2023-03-04T07:03:05.867Z,-0.11
2023-03-04T07:05:33.341Z,-0.36
2023-03-04T07:08:00.799Z,-1.09
2023-03-04T07:10:28.262Z,-1.65
2023-03-04T07:12:55.814Z,-1.23
2023-03-04T07:15:23.248Z,-0.81
2023-03-04T07:17:52.589Z,-0.63
2023-03-04T07:20:21.527Z,-1.27
2023-03-04T07:22:49.007Z,-1.18
2023-03-04T07:25:17.880Z,-0.87
2023-03-04T07:27:45.310Z,-0.80
2023-03-04T07:30:13.507Z,-0.97
2023-03-04T07:32:41.006Z,-0.85
2023-03-04T07:35:09.230Z,-0.98
2023-03-04T07:37:40.099Z,-0.79
2023-03-04T07:40:09.198Z,-0.21
2023-03-04T07:42:37.154Z,-0.64
2023-03-04T07:45:05.422Z,-0.98
2023-03-04T07:47:32.982Z,-0.88
2023-03-04T07:50:00.433Z,-0.41
2023-03-04T07:52:27.899Z,-0.06
2023-03-04T07:54:56.667Z,-0.24
2023-03-04T07:57:24.100Z,-0.58
2023-03-04T07:59:51.592Z,-1.02
2023-03-04T08:02:19.200Z,-0.56
2023-03-04T08:04:46.650Z,-1.05
2023-03-04T08:07:14.151Z,-0.20
2023-03-04T08:09:41.598Z,-0.31
2023-03-04T08:12:10.599Z,-0.85
2023-03-04T08:14:38.200Z,-0.48
2023-03-04T08:17:05.805Z,-1.01
2023-03-04T08:19:33.342Z,-0.92
2023-03-04T08:22:00.801Z,-0.67
2023-03-04T08:24:28.777Z,-0.88
2023-03-04T08:26:56.306Z,-0.84
2023-03-04T08:29:26.827Z,-0.57
2023-03-04T08:31:55.434Z,-0.53
2023-03-04T08:34:25.602Z,-0.73
2023-03-04T08:36:53.247Z,-0.88
2023-03-04T08:39:21.102Z,-0.84
2023-03-04T08:41:48.944Z,-0.73
2023-03-04T08:44:16.894Z,-0.38
2023-03-04T08:46:45.696Z,-0.49
2023-03-04T08:49:14.305Z,-0.67
2023-03-04T08:51:41.888Z,-0.56
2023-03-04T08:54:09.426Z,-0.39
2023-03-04T08:56:37.192Z,-0.38
2023-03-04T08:59:04.717Z,-0.55
2023-03-04T09:01:32.193Z,-0.60
2023-03-04T09:04:01.153Z,-0.52
2023-03-04T09:06:28.632Z,-0.43
2023-03-04T09:08:56.095Z,-0.44
2023-03-04T09:11:23.600Z,-0.52
2023-03-04T09:13:51.733Z,-0.51
2023-03-04T09:16:19.395Z,-0.52
2023-03-04T09:18:46.954Z,-0.20
2023-03-04T09:21:16.065Z,-0.22
2023-03-04T09:23:43.629Z,-0.07
2023-03-04T09:26:16.417Z,-0.21
2023-03-04T09:28:44.046Z,-0.17
2023-03-04T09:31:16.748Z,-0.10
2023-03-04T09:33:44.349Z,-0.15
2023-03-04T09:36:12.897Z,-0.17
2023-03-04T09:38:42.654Z,-0.01
2023-03-04T09:41:15.572Z,-0.10
2023-03-04T09:43:45.148Z,-0.18
2023-03-04T09:46:17.531Z,-0.02
2023-03-04T09:48:47.871Z,0.08
2023-03-04T09:51:22.303Z,0.22
2023-03-04T09:54:04.636Z,0.12
2023-03-04T09:56:34.572Z,0.09
2023-03-04T09:59:10.418Z,0.13
2023-03-04T10:01:43.523Z,0.25
2023-03-04T10:04:14.905Z,0.34
2023-03-04T10:06:43.078Z,0.24
2023-03-04T10:09:17.584Z,0.35
2023-03-04T10:11:48.789Z,0.22
2023-03-04T10:14:34.739Z,0.29
2023-03-04T10:17:09.874Z,0.30
2023-03-04T10:19:55.226Z,0.45
2023-03-04T10:22:29.991Z,0.55
2023-03-04T10:25:03.108Z,0.62
2023-03-04T10:27:32.491Z,0.54
2023-03-04T10:30:01.560Z,0.50
2023-03-04T10:32:29.136Z,0.54
2023-03-04T10:34:56.600Z,0.55
2023-03-04T10:37:24.132Z,0.56
2023-03-04T10:39:51.659Z,0.58
2023-03-04T10:42:37.090Z,0.57
2023-03-04T10:45:05.557Z,0.57
2023-03-04T10:47:34.560Z,0.65
2023-03-04T10:50:05.627Z,0.57
2023-03-04T10:52:37.114Z,0.59
2023-03-04T10:55:07.486Z,0.74
2023-03-04T10:57:39.486Z,0.65
2023-03-04T11:00:26.289Z,0.70
2023-03-04T11:02:53.802Z,0.77
2023-03-04T11:05:23.033Z,0.78
2023-03-04T11:07:56.318Z,0.83
2023-03-04T11:10:27.801Z,0.77
2023-03-04T11:13:01.839Z,0.73
2023-03-04T11:15:31.766Z,0.63
2023-03-04T11:18:03.581Z,0.40
2023-03-04T11:20:34.339Z,0.30
2023-03-04T11:23:06.243Z,0.62
2023-03-04T11:25:36.595Z,0.57
2023-03-04T11:28:13.943Z,0.61
2023-03-04T11:30:47.585Z,0.77
2023-03-04T11:33:24.956Z,0.80
2023-03-04T11:35:59.935Z,0.62
2023-03-04T11:38:33.426Z,0.55
2023-03-04T11:41:05.362Z,0.62
2023-03-04T11:43:37.971Z,0.57
2023-03-04T11:46:35.828Z,0.74
2023-03-04T11:49:17.336Z,0.54
2023-03-04T11:51:53.229Z,0.75
2023-03-04T11:54:31.337Z,0.75
2023-03-04T11:57:06.646Z,0.72
2023-03-04T12:00:04.669Z,0.79
2023-03-04T12:02:43.217Z,0.78
2023-03-04T12:05:21.272Z,0.69
2023-03-04T12:08:22.048Z,0.77
2023-03-04T12:10:56.913Z,0.77
2023-03-04T12:14:06.374Z,0.94
2023-03-04T12:16:57.637Z,0.81
2023-03-04T12:19:38.543Z,0.85
2023-03-04T12:22:23.442Z,0.82
2023-03-04T12:25:10.433Z,1.07
2023-03-04T12:27:45.730Z,0.93
2023-03-04T12:30:28.115Z,0.98
2023-03-04T12:33:07.338Z,0.96
2023-03-04T12:35:39.557Z,0.84
2023-03-04T12:38:51.478Z,0.86
2023-03-04T12:41:31.415Z,0.93
2023-03-04T12:44:13.373Z,0.98
2023-03-04T12:46:50.722Z,1.00
2023-03-04T12:49:44.946Z,1.03
2023-03-04T12:52:22.179Z,0.90
2023-03-04T12:54:55.311Z,1.22
2023-03-04T12:57:26.014Z,1.18
2023-03-04T13:00:01.026Z,1.32
2023-03-04T13:02:48.693Z,1.45
2023-03-04T13:05:29.730Z,1.20
2023-03-04T13:08:04.712Z,1.09
2023-03-04T13:10:32.297Z,1.12
2023-03-04T13:13:01.123Z,1.24
2023-03-04T13:15:37.104Z,1.19
2023-03-04T13:18:32.228Z,1.27
2023-03-04T13:21:18.889Z,1.14
2023-03-04T13:23:46.421Z,1.19
2023-03-04T13:26:25.007Z,1.33
2023-03-04T13:29:11.130Z,1.15
2023-03-04T13:32:00.655Z,1.26
2023-03-04T13:34:49.575Z,1.30
2023-03-04T13:37:37.672Z,1.39
2023-03-04T13:40:37.087Z,1.41
2023-03-04T13:43:27.212Z,1.39
2023-03-04T13:45:54.970Z,1.36
2023-03-04T13:48:27.701Z,1.28
2023-03-04T13:50:55.320Z,1.39
2023-03-04T13:53:38.805Z,1.47
2023-03-04T13:56:23.287Z,1.47
2023-03-04T13:58:53.174Z,1.37
2023-03-04T14:01:28.455Z,1.36
2023-03-04T14:03:56.032Z,1.46
2023-03-04T14:06:25.199Z,1.53
2023-03-04T14:08:55.324Z,1.50
2023-03-04T14:11:28.701Z,1.47
2023-03-04T14:13:58.317Z,1.56
2023-03-04T14:16:28.950Z,1.57
2023-03-04T14:19:02.738Z,1.47
2023-03-04T14:21:30.508Z,1.46
2023-03-04T14:24:05.672Z,1.52
2023-03-04T14:26:33.303Z,1.49
2023-03-04T14:29:02.643Z,1.62
2023-03-04T14:31:32.594Z,1.57
2023-03-04T14:34:02.767Z,1.56
2023-03-04T14:36:33.630Z,1.62
2023-03-04T14:39:05.793Z,1.53
2023-03-04T14:41:35.573Z,1.59
2023-03-04T14:44:13.710Z,1.63
2023-03-04T14:46:49.324Z,1.61
2023-03-04T14:49:24.784Z,1.63
2023-03-04T14:51:54.065Z,1.54
2023-03-04T14:54:41.866Z,1.63
2023-03-04T14:57:26.334Z,1.53
2023-03-04T14:59:54.835Z,1.60
2023-03-04T15:02:31.140Z,1.62
2023-03-04T15:05:01.350Z,1.63
2023-03-04T15:07:34.420Z,1.59
2023-03-04T15:10:06.070Z,1.66
2023-03-04T15:12:37.597Z,1.58
2023-03-04T15:15:26.263Z,1.53
2023-03-04T15:17:59.323Z,1.48
2023-03-04T15:20:29.058Z,1.59
2023-03-04T15:23:08.317Z,1.56
2023-03-04T15:25:37.600Z,1.62
2023-03-04T15:28:07.789Z,1.62
2023-03-04T15:30:35.965Z,1.59
2023-03-04T15:33:03.428Z,1.52
2023-03-04T15:35:33.951Z,1.53
2023-03-04T15:38:01.800Z,1.45
2023-03-04T15:40:32.558Z,1.53
2023-03-04T15:43:04.640Z,1.43
2023-03-04T15:45:35.880Z,1.56
2023-03-04T15:48:07.587Z,1.54
2023-03-04T15:50:37.930Z,1.52
2023-03-04T15:53:09.323Z,1.51
2023-03-04T15:55:37.160Z,1.43
2023-03-04T15:58:07.207Z,1.55
2023-03-04T16:00:34.709Z,1.43
2023-03-04T16:03:02.171Z,1.42
2023-03-04T16:05:29.912Z,1.43
2023-03-04T16:07:57.400Z,1.45
2023-03-04T16:10:28.320Z,1.43
2023-03-04T16:12:55.868Z,1.48
2023-03-04T16:15:26.664Z,1.57
2023-03-04T16:17:54.730Z,1.46
2023-03-04T16:20:24.512Z,1.51
2023-03-04T16:22:56.524Z,1.62
2023-03-04T16:25:25.637Z,1.55
2023-03-04T16:27:56.417Z,1.48
2023-03-04T16:30:27.639Z,1.61
2023-03-04T16:32:55.496Z,1.61
2023-03-04T16:35:25.117Z,1.52
2023-03-04T16:37:53.164Z,1.43
2023-03-04T16:40:23.186Z,1.48
2023-03-04T16:42:50.728Z,1.48
2023-03-04T16:45:19.715Z,1.57
2023-03-04T16:47:48.528Z,1.67
2023-03-04T16:50:17.061Z,1.47
2023-03-04T16:52:46.616Z,1.47
2023-03-04T16:55:17.959Z,1.38
2023-03-04T16:57:45.643Z,1.66
2023-03-04T17:00:14.856Z,1.60
2023-03-04T17:02:42.502Z,1.41
2023-03-04T17:05:17.709Z,1.53
2023-03-04T17:07:45.250Z,1.46
2023-03-04T17:10:13.705Z,1.48
2023-03-04T17:12:41.694Z,1.35
2023-03-04T17:15:13.033Z,1.45
2023-03-04T17:17:41.187Z,1.47
2023-03-04T17:20:10.519Z,1.41
2023-03-04T17:22:39.550Z,1.47
2023-03-04T17:25:07.515Z,1.45
2023-03-04T17:27:35.323Z,1.42
2023-03-04T17:30:03.394Z,1.41
2023-03-04T17:32:32.479Z,1.50
2023-03-04T17:35:00.254Z,1.52
2023-03-04T17:37:28.156Z,1.53
2023-03-04T17:39:56.954Z,1.59
2023-03-04T17:42:24.416Z,1.66
2023-03-04T17:44:52.013Z,1.75
2023-03-04T17:47:19.446Z,1.62
2023-03-04T17:49:47.053Z,1.64
2023-03-04T17:52:14.640Z,1.41
2023-03-04T17:54:42.127Z,1.33
2023-03-04T17:57:11.010Z,1.32
2023-03-04T17:59:38.522Z,1.26
2023-03-04T18:02:06.656Z,1.20
2023-03-04T18:04:35.349Z,1.39
2023-03-04T18:07:02.805Z,1.48
2023-03-04T18:09:30.278Z,1.31
2023-03-04T18:11:57.748Z,1.39
2023-03-04T18:14:26.573Z,1.36
2023-03-04T18:16:54.016Z,1.50
2023-03-04T18:19:21.478Z,1.39
2023-03-04T18:21:48.947Z,1.35
2023-03-04T18:24:16.485Z,1.35
2023-03-04T18:26:43.990Z,1.48
2023-03-04T18:29:11.548Z,1.38
2023-03-04T18:31:40.489Z,1.51
2023-03-04T18:34:08.048Z,1.38
2023-03-04T18:36:35.558Z,1.61
2023-03-04T18:39:05.200Z,1.50
2023-03-04T18:41:32.855Z,1.34
2023-03-04T18:44:00.386Z,1.34
2023-03-04T18:46:35.507Z,1.33
2023-03-04T18:49:08.609Z,1.35
2023-03-04T18:51:36.136Z,1.37
2023-03-04T18:54:03.931Z,1.43
2023-03-04T18:56:38.530Z,1.53
2023-03-04T18:59:09.845Z,1.42
2023-03-04T19:01:37.914Z,1.43
2023-03-04T19:04:07.458Z,1.65
2023-03-04T19:06:35.508Z,1.38
2023-03-04T19:09:03.412Z,1.35
2023-03-04T19:11:32.760Z,1.34
2023-03-04T19:14:00.704Z,1.38
2023-03-04T19:16:28.459Z,1.43
2023-03-04T19:18:56.010Z,1.39
2023-03-04T19:21:24.819Z,1.39
2023-03-04T19:23:52.627Z,1.35
2023-03-04T19:26:20.336Z,1.38
2023-03-04T19:28:48.150Z,1.46
2023-03-04T19:31:15.603Z,1.40
2023-03-04T19:33:43.075Z,1.39
2023-03-04T19:36:11.237Z,1.39
2023-03-04T19:38:40.269Z,1.35
2023-03-04T19:41:11.464Z,1.45
2023-03-04T19:43:39.351Z,1.39
2023-03-04T19:46:08.524Z,1.59
2023-03-04T19:48:36.302Z,1.52
2023-03-04T19:51:04.648Z,1.70
2023-03-04T19:53:34.741Z,1.58
2023-03-04T19:56:04.021Z,1.63
2023-03-04T19:58:31.484Z,1.43
2023-03-04T20:00:58.923Z,1.34
2023-03-04T20:03:26.826Z,1.25
2023-03-04T20:06:03.304Z,1.51
2023-03-04T20:08:30.845Z,1.50
2023-03-04T20:10:58.322Z,1.31
2023-03-04T20:13:27.609Z,1.29
2023-03-04T20:15:55.223Z,1.52
2023-03-04T20:18:23.513Z,1.51
2023-03-04T20:20:52.198Z,1.59
2023-03-04T20:23:21.675Z,1.59
2023-03-04T20:25:49.171Z,1.64
2023-03-04T20:28:17.081Z,1.46
2023-03-04T20:30:46.324Z,1.58
2023-03-04T20:33:13.812Z,1.58
2023-03-04T20:35:41.475Z,1.40
2023-03-04T20:38:09.589Z,1.53
2023-03-04T20:40:38.021Z,1.40
2023-03-04T20:43:06.748Z,1.54
2023-03-04T20:45:34.684Z,1.54
2023-03-04T20:48:05.376Z,1.49
2023-03-04T20:50:32.848Z,1.57
2023-03-04T20:53:00.307Z,1.68
2023-03-04T20:55:28.235Z,1.55
2023-03-04T20:57:55.707Z,1.62
2023-03-04T21:00:23.368Z,1.52
2023-03-04T21:02:55.966Z,1.72
2023-03-04T21:05:25.403Z,1.60
2023-03-04T21:07:55.166Z,1.30
2023-03-04T21:10:23.292Z,1.19
2023-03-04T21:12:51.404Z,1.35
2023-03-04T21:15:19.116Z,1.51
2023-03-04T21:17:46.568Z,1.35
2023-03-04T21:20:15.758Z,1.14
2023-03-04T21:22:44.647Z,1.57
2023-03-04T21:25:12.207Z,1.43
2023-03-04T21:27:42.630Z,1.41
2023-03-04T21:30:11.754Z,1.64
2023-03-04T21:32:39.905Z,1.51
2023-03-04T21:35:08.136Z,1.62
2023-03-04T21:37:36.168Z,1.53
2023-03-04T21:40:06.085Z,1.53
2023-03-04T21:42:33.546Z,1.63
2023-03-04T21:45:01.097Z,1.46
2023-03-04T21:47:28.551Z,1.61
2023-03-04T21:49:56.114Z,1.67
2023-03-04T21:52:24.279Z,1.49
2023-03-04T21:54:51.811Z,1.50
2023-03-04T21:57:20.768Z,1.61
2023-03-04T21:59:48.437Z,1.40
2023-03-04T22:02:18.889Z,1.40
2023-03-04T22:04:46.834Z,1.41
2023-03-04T22:07:14.456Z,1.55
2023-03-04T22:09:41.934Z,1.32
2023-03-04T22:12:09.841Z,1.47
2023-03-04T22:14:38.703Z,1.46
2023-03-04T22:17:06.491Z,1.47
2023-03-04T22:19:34.396Z,1.38
2023-03-04T22:22:01.854Z,1.37
2023-03-04T22:24:29.338Z,1.46
2023-03-04T22:26:57.552Z,1.40
2023-03-04T22:29:25.029Z,1.33
2023-03-04T22:31:53.982Z,1.28
2023-03-04T22:34:21.566Z,1.38
2023-03-04T22:36:49.163Z,1.28
2023-03-04T22:39:19.489Z,1.31
2023-03-04T22:41:47.737Z,1.36
2023-03-04T22:44:15.373Z,1.34
2023-03-04T22:46:43.565Z,1.30
2023-03-04T22:49:14.765Z,1.35
2023-03-04T22:51:43.798Z,1.32
2023-03-04T22:54:12.597Z,1.31
2023-03-04T22:56:40.147Z,1.34
2023-03-04T22:59:07.664Z,1.34
2023-03-04T23:01:35.279Z,1.38
2023-03-04T23:04:03.181Z,1.34
2023-03-04T23:06:32.061Z,1.31
2023-03-04T23:09:00.480Z,1.31
2023-03-04T23:11:29.802Z,1.27
2023-03-04T23:13:57.893Z,1.30
2023-03-04T23:16:27.658Z,1.36
2023-03-04T23:18:56.560Z,1.25
2023-03-04T23:21:27.949Z,1.32
2023-03-04T23:23:56.766Z,1.37
2023-03-04T23:26:26.684Z,1.40
2023-03-04T23:28:55.567Z,1.31
2023-03-04T23:31:23.877Z,1.41
2023-03-04T23:33:51.533Z,1.28
2023-03-04T23:36:20.191Z,1.24
2023-03-04T23:38:49.481Z,1.30
2023-03-04T23:41:19.986Z,1.29
2023-03-04T23:43:48.423Z,1.30
2023-03-04T23:46:16.718Z,1.24
2023-03-04T23:48:46.181Z,1.26
2023-03-04T23:51:15.028Z,1.26
2023-03-04T23:53:42.630Z,1.27
2023-03-04T23:56:10.693Z,1.26
2023-03-04T23:58:39.733Z,1.26
